createdAt,value
2023-09-07T00:01:35.151Z,99.94
2023-09-07T00:03:43.466Z,100.00
2023-09-07T00:05:49.562Z,100.00
2023-09-07T00:07:57.265Z,100.00
2023-09-07T00:10:03.548Z,100.00
2023-09-07T00:12:09.560Z,100.00
2023-09-07T00:14:17.372Z,100.00
2023-09-07T00:16:27.832Z,100.00
2023-09-07T00:18:33.782Z,100.00
2023-09-07T00:20:41.880Z,100.00
2023-09-07T00:22:47.215Z,100.00
2023-09-07T00:24:52.558Z,100.00
2023-09-07T00:26:59.223Z,100.00
2023-09-07T00:29:04.294Z,100.00
2023-09-07T00:31:09.529Z,100.00
2023-09-07T00:33:17.120Z,100.00
2023-09-07T00:35:22.537Z,100.00
2023-09-07T00:37:30.694Z,100.00
2023-09-07T00:39:35.798Z,100.00
2023-09-07T00:41:40.902Z,100.00
2023-09-07T00:43:48.916Z,100.00
2023-09-07T00:45:59.034Z,100.00
2023-09-07T00:48:04.562Z,100.00
2023-09-07T00:50:15.155Z,100.00
2023-09-07T00:52:25.602Z,100.00
2023-09-07T00:54:28.312Z,100.00
2023-09-07T00:56:35.710Z,100.00
2023-09-07T00:58:41.883Z,100.00
2023-09-07T01:00:47.595Z,100.00
2023-09-07T01:02:50.297Z,100.00
2023-09-07T01:04:56.258Z,100.00
2023-09-07T01:07:12.236Z,100.00
2023-09-07T01:09:20.737Z,100.00
2023-09-07T01:11:26.103Z,100.00
2023-09-07T01:13:31.627Z,100.00
2023-09-07T01:15:36.816Z,100.00
2023-09-07T01:17:45.264Z,100.00
2023-09-07T01:19:50.909Z,100.00
2023-09-07T01:22:02.606Z,100.00
2023-09-07T01:24:10.465Z,100.00
2023-09-07T01:26:16.367Z,100.00
2023-09-07T01:28:23.222Z,100.00
2023-09-07T01:30:35.136Z,100.00
2023-09-07T01:32:43.904Z,100.00
2023-09-07T01:34:49.485Z,100.00
2023-09-07T01:36:57.072Z,100.00
2023-09-07T01:39:05.305Z,100.00
2023-09-07T01:41:10.525Z,100.00
2023-09-07T01:43:15.921Z,100.00
2023-09-07T01:45:21.261Z,100.00
2023-09-07T01:47:26.361Z,100.00
2023-09-07T01:49:32.787Z,100.00
2023-09-07T01:51:38.417Z,100.00
2023-09-07T01:53:43.840Z,100.00
2023-09-07T01:55:52.635Z,100.00
2023-09-07T01:58:02.415Z,100.00
2023-09-07T02:00:09.564Z,100.00
2023-09-07T02:02:15.001Z,100.00
2023-09-07T02:04:20.202Z,100.00
2023-09-07T02:06:27.917Z,100.00
2023-09-07T02:08:33.062Z,100.00
2023-09-07T02:10:38.676Z,100.00
2023-09-07T02:12:49.475Z,100.00
2023-09-07T02:14:57.052Z,100.00
2023-09-07T02:17:02.181Z,100.00
2023-09-07T02:19:08.401Z,100.00
2023-09-07T02:21:14.518Z,100.00
2023-09-07T02:23:22.572Z,100.00
2023-09-07T02:25:29.044Z,100.00
2023-09-07T02:27:31.814Z,100.00
2023-09-07T02:29:39.391Z,100.00
2023-09-07T02:31:42.885Z,100.00
2023-09-07T02:33:47.917Z,100.00
2023-09-07T02:35:56.262Z,100.00
2023-09-07T02:38:01.931Z,100.00
2023-09-07T02:40:09.044Z,100.00
2023-09-07T02:42:13.998Z,100.00
2023-09-07T02:44:20.068Z,100.00
2023-09-07T02:46:28.816Z,100.00
2023-09-07T02:48:34.231Z,100.00
2023-09-07T02:50:37.218Z,100.00
2023-09-07T02:52:43.843Z,100.00
2023-09-07T02:54:49.279Z,100.00
2023-09-07T02:56:57.400Z,100.00
2023-09-07T02:59:05.423Z,100.00
2023-09-07T03:01:12.184Z,100.00
2023-09-07T03:03:20.018Z,100.00
2023-09-07T03:05:27.495Z,100.00
2023-09-07T03:07:40.674Z,100.00
2023-09-07T03:09:48.956Z,100.00
2023-09-07T03:11:52.622Z,100.00
2023-09-07T03:13:59.833Z,100.00
2023-09-07T03:16:04.048Z,100.00
2023-09-07T03:18:12.177Z,100.00
2023-09-07T03:20:18.624Z,100.00
2023-09-07T03:22:23.892Z,100.00
2023-09-07T03:24:31.964Z,100.00
2023-09-07T03:26:37.196Z,100.00
2023-09-07T03:28:42.534Z,100.00
2023-09-07T03:30:45.245Z,100.00
2023-09-07T03:32:50.731Z,100.00
2023-09-07T03:34:56.220Z,100.00
2023-09-07T03:37:07.662Z,100.00
2023-09-07T03:39:13.214Z,100.00
2023-09-07T03:41:15.714Z,100.00
2023-09-07T03:43:21.749Z,100.00
2023-09-07T03:45:27.001Z,100.00
2023-09-07T03:47:32.354Z,100.00
2023-09-07T03:49:37.707Z,100.00
2023-09-07T03:51:43.336Z,100.00
2023-09-07T03:53:52.269Z,100.00
2023-09-07T03:56:00.210Z,100.00
2023-09-07T03:58:05.282Z,100.00
2023-09-07T04:00:10.084Z,100.00
2023-09-07T04:02:15.445Z,100.00
2023-09-07T04:04:22.047Z,100.00
2023-09-07T04:06:28.178Z,100.00
2023-09-07T04:08:33.396Z,100.00
2023-09-07T04:10:45.121Z,100.00
2023-09-07T04:12:50.353Z,100.00
2023-09-07T04:14:56.354Z,100.00
2023-09-07T04:17:02.793Z,100.00
2023-09-07T04:19:10.548Z,100.00
2023-09-07T04:21:16.579Z,100.00
2023-09-07T04:23:23.111Z,100.00
2023-09-07T04:25:30.501Z,100.00
2023-09-07T04:27:40.699Z,100.00
2023-09-07T04:29:52.101Z,100.00
2023-09-07T04:31:57.144Z,100.00
2023-09-07T04:34:05.188Z,100.00
2023-09-07T04:36:16.656Z,100.00
2023-09-07T04:38:21.977Z,100.00
2023-09-07T04:40:31.261Z,100.00
2023-09-07T04:42:39.927Z,100.00
2023-09-07T04:44:46.793Z,100.00
2023-09-07T04:46:55.679Z,100.00
2023-09-07T04:49:04.331Z,100.00
2023-09-07T04:51:10.490Z,100.00
2023-09-07T04:53:18.432Z,100.00
2023-09-07T04:55:26.873Z,100.00
2023-09-07T04:57:31.841Z,100.00
2023-09-07T04:59:39.892Z,100.00
2023-09-07T05:01:45.181Z,100.00
2023-09-07T05:03:53.159Z,100.00
2023-09-07T05:06:01.947Z,100.00
2023-09-07T05:08:09.856Z,100.00
2023-09-07T05:10:20.930Z,100.00
2023-09-07T05:12:26.371Z,100.00
2023-09-07T05:14:33.825Z,100.00
2023-09-07T05:18:12.028Z,100.00
2023-09-07T05:20:45.327Z,100.00
2023-09-07T05:23:24.655Z,100.00
2023-09-07T05:26:33.229Z,100.00
2023-09-07T05:28:57.329Z,100.00
2023-09-07T05:33:59.478Z,100.00
2023-09-07T05:36:08.052Z,100.00
2023-09-07T05:38:13.922Z,100.00
2023-09-07T05:40:17.794Z,100.00
2023-09-07T05:42:22.879Z,100.00
2023-09-07T05:44:44.903Z,100.00
2023-09-07T05:46:59.206Z,100.00
2023-09-07T05:49:07.141Z,100.00
2023-09-07T05:51:13.960Z,100.00
2023-09-07T05:53:17.022Z,100.00
2023-09-07T05:55:25.626Z,100.00
2023-09-07T05:57:30.789Z,100.00
2023-09-07T05:59:36.904Z,100.00
2023-09-07T06:01:46.457Z,100.00
2023-09-07T06:03:57.733Z,100.00
2023-09-07T06:06:08.810Z,100.00
2023-09-07T06:08:18.160Z,100.00
2023-09-07T06:10:25.715Z,100.00
2023-09-07T06:12:31.034Z,100.00
2023-09-07T06:14:36.788Z,100.00
2023-09-07T06:16:42.255Z,100.00
2023-09-07T06:18:47.820Z,100.00
2023-09-07T06:21:55.708Z,100.00
2023-09-07T06:24:03.413Z,100.00
2023-09-07T06:26:08.448Z,100.00
2023-09-07T06:28:14.646Z,100.00
2023-09-07T06:30:21.326Z,100.00
2023-09-07T06:32:26.673Z,99.69
2023-09-07T06:34:32.109Z,99.05
2023-09-07T06:36:47.562Z,98.10
2023-09-07T06:38:55.697Z,97.45
2023-09-07T06:41:03.956Z,95.87
2023-09-07T06:43:25.210Z,95.67
2023-09-07T06:45:30.731Z,94.93
2023-09-07T06:47:36.477Z,93.88
2023-09-07T06:49:47.998Z,92.96
2023-09-07T06:51:56.197Z,92.67
2023-09-07T06:54:06.623Z,92.20
2023-09-07T06:56:15.018Z,91.23
2023-09-07T06:58:27.122Z,90.45
2023-09-07T07:00:33.127Z,89.93
2023-09-07T07:02:45.904Z,88.01
2023-09-07T07:04:53.008Z,87.79
2023-09-07T07:07:02.392Z,86.84
2023-09-07T07:09:10.535Z,86.27
2023-09-07T07:11:19.098Z,84.66
2023-09-07T07:13:26.928Z,84.14
2023-09-07T07:15:36.136Z,83.66
2023-09-07T07:17:42.811Z,83.49
2023-09-07T07:19:50.881Z,81.77
2023-09-07T07:21:56.145Z,82.19
2023-09-07T07:24:07.014Z,80.07
2023-09-07T07:26:14.636Z,79.85
2023-09-07T07:28:22.428Z,79.22
2023-09-07T07:30:37.676Z,78.75
2023-09-07T07:32:45.111Z,77.97
2023-09-07T07:34:50.960Z,78.61
2023-09-07T07:36:56.380Z,76.80
2023-09-07T07:39:06.058Z,76.76
2023-09-07T07:41:11.345Z,76.46
2023-09-07T07:43:16.690Z,76.20
2023-09-07T07:45:27.478Z,74.73
2023-09-07T07:47:32.538Z,73.36
2023-09-07T07:49:35.812Z,72.57
2023-09-07T07:51:44.418Z,72.82
2023-09-07T07:53:57.619Z,72.13
2023-09-07T07:56:02.690Z,71.05
2023-09-07T07:58:10.240Z,70.78
2023-09-07T08:00:18.421Z,70.56
2023-09-07T08:02:28.008Z,69.96
2023-09-07T08:04:34.159Z,69.34
2023-09-07T08:06:45.156Z,68.61
2023-09-07T08:09:07.926Z,68.55
2023-09-07T08:11:13.419Z,67.69
2023-09-07T08:13:22.230Z,66.73
2023-09-07T08:15:27.662Z,67.04
2023-09-07T08:17:35.775Z,66.22
2023-09-07T08:19:45.250Z,67.23
2023-09-07T08:21:52.711Z,64.97
2023-09-07T08:24:04.562Z,63.90
2023-09-07T08:26:17.567Z,63.68
2023-09-07T08:28:20.638Z,64.03
2023-09-07T08:30:27.608Z,63.25
2023-09-07T08:32:40.404Z,63.60
2023-09-07T08:34:45.900Z,63.38
2023-09-07T08:36:57.360Z,62.80
2023-09-07T08:39:07.280Z,60.84
2023-09-07T08:41:14.377Z,61.32
2023-09-07T08:43:25.575Z,62.26
2023-09-07T08:45:34.901Z,61.51
2023-09-07T08:47:46.176Z,61.72
2023-09-07T08:49:57.136Z,60.85
2023-09-07T08:52:12.823Z,59.55
2023-09-07T08:54:19.149Z,60.21
2023-09-07T08:56:34.004Z,60.74
2023-09-07T08:58:39.071Z,59.44
2023-09-07T09:00:47.540Z,59.65
2023-09-07T09:03:03.600Z,58.34
2023-09-07T09:05:10.449Z,59.17
2023-09-07T09:07:16.731Z,58.06
2023-09-07T09:09:26.678Z,58.08
2023-09-07T09:11:35.310Z,58.36
2023-09-07T09:13:40.520Z,57.35
2023-09-07T09:15:48.331Z,58.12
2023-09-07T09:18:01.270Z,58.19
2023-09-07T09:20:13.150Z,57.20
2023-09-07T09:22:22.504Z,56.63
2023-09-07T09:24:28.045Z,56.45
2023-09-07T09:26:32.947Z,56.12
2023-09-07T09:28:38.846Z,56.39
2023-09-07T09:30:46.486Z,55.85
2023-09-07T09:32:57.592Z,54.17
2023-09-07T09:35:04.408Z,55.61
2023-09-07T09:37:20.333Z,55.96
2023-09-07T09:39:29.268Z,54.66
2023-09-07T09:41:36.351Z,54.71
2023-09-07T09:43:41.870Z,53.90
2023-09-07T09:45:47.606Z,53.52
2023-09-07T09:48:01.172Z,54.28
2023-09-07T09:50:07.851Z,53.89
2023-09-07T09:52:14.396Z,54.56
2023-09-07T09:54:21.112Z,53.86
2023-09-07T09:56:27.724Z,53.21
2023-09-07T09:58:35.149Z,53.16
2023-09-07T10:00:41.516Z,52.82
2023-09-07T10:02:47.830Z,51.56
2023-09-07T10:04:56.108Z,52.00
2023-09-07T10:07:02.442Z,51.77
2023-09-07T10:09:13.085Z,52.48
2023-09-07T10:11:30.679Z,53.00
2023-09-07T10:13:37.639Z,53.01
2023-09-07T10:15:44.166Z,51.04
2023-09-07T10:17:51.586Z,51.06
2023-09-07T10:20:09.815Z,50.80
2023-09-07T10:22:26.071Z,50.40
2023-09-07T10:24:32.431Z,48.86
2023-09-07T10:26:37.642Z,49.83
2023-09-07T10:28:44.876Z,48.64
2023-09-07T10:30:49.763Z,47.91
2023-09-07T10:32:56.949Z,49.03
2023-09-07T10:35:04.260Z,49.62
2023-09-07T10:37:14.641Z,49.49
2023-09-07T10:39:21.602Z,48.60
2023-09-07T10:41:30.692Z,48.32
2023-09-07T10:43:45.483Z,48.56
2023-09-07T10:45:51.978Z,48.24
2023-09-07T10:47:57.120Z,48.44
2023-09-07T10:50:04.649Z,47.68
2023-09-07T10:52:13.461Z,47.81
2023-09-07T10:54:19.531Z,46.36
2023-09-07T10:56:31.752Z,47.02
2023-09-07T10:58:40.072Z,46.62
2023-09-07T11:00:45.610Z,46.22
2023-09-07T11:02:50.671Z,45.97
2023-09-07T11:04:56.394Z,45.32
2023-09-07T11:07:02.284Z,44.99
2023-09-07T11:09:12.433Z,45.46
2023-09-07T11:11:18.254Z,44.39
2023-09-07T11:13:26.722Z,44.80
2023-09-07T11:15:31.302Z,45.96
2023-09-07T11:17:36.745Z,44.83
2023-09-07T11:19:41.761Z,45.32
2023-09-07T11:21:47.140Z,45.70
2023-09-07T11:23:52.264Z,46.09
2023-09-07T11:26:00.035Z,46.16
2023-09-07T11:28:20.799Z,46.46
2023-09-07T11:30:26.027Z,45.16
2023-09-07T11:32:38.022Z,44.93
2023-09-07T11:34:52.701Z,44.04
2023-09-07T11:37:00.827Z,45.05
2023-09-07T11:39:12.033Z,45.44
2023-09-07T11:41:20.873Z,45.14
2023-09-07T11:43:26.303Z,44.84
2023-09-07T11:45:33.929Z,44.66
2023-09-07T11:47:39.286Z,43.80
2023-09-07T11:49:44.335Z,45.23
2023-09-07T11:51:51.228Z,44.14
2023-09-07T11:53:56.344Z,44.40
2023-09-07T11:56:02.501Z,44.58
2023-09-07T11:58:11.826Z,44.42
2023-09-07T12:00:19.836Z,44.52
2023-09-07T12:02:28.619Z,43.68
2023-09-07T12:04:34.850Z,43.08
2023-09-07T12:06:44.757Z,42.96
2023-09-07T12:09:03.141Z,42.49
2023-09-07T12:11:09.645Z,43.00
2023-09-07T12:13:17.541Z,42.93
2023-09-07T12:15:22.804Z,43.16
2023-09-07T12:17:26.554Z,43.03
2023-09-07T12:19:32.029Z,42.09
2023-09-07T12:21:37.105Z,41.73
2023-09-07T12:23:43.333Z,41.64
2023-09-07T12:25:52.540Z,42.71
2023-09-07T12:28:00.961Z,42.40
2023-09-07T12:30:13.935Z,42.05
2023-09-07T12:32:22.902Z,42.00
2023-09-07T12:34:32.317Z,41.52
2023-09-07T12:36:39.300Z,40.76
2023-09-07T12:38:44.710Z,40.93
2023-09-07T12:40:50.138Z,40.49
2023-09-07T12:42:56.141Z,39.63
2023-09-07T12:44:58.852Z,40.09
2023-09-07T12:47:06.643Z,39.26
2023-09-07T12:49:11.920Z,38.83
2023-09-07T12:51:17.514Z,38.95
2023-09-07T12:53:26.107Z,40.40
2023-09-07T12:55:31.499Z,39.58
2023-09-07T12:57:37.456Z,38.98
2023-09-07T12:59:45.348Z,39.41
2023-09-07T13:01:56.737Z,39.31
2023-09-07T13:04:04.502Z,39.10
2023-09-07T13:06:09.668Z,38.63
2023-09-07T13:08:15.228Z,38.67
2023-09-07T13:10:20.173Z,38.06
2023-09-07T13:12:27.313Z,39.08
2023-09-07T13:14:34.669Z,39.00
2023-09-07T13:16:45.266Z,39.00
2023-09-07T13:18:52.961Z,37.72
2023-09-07T13:21:03.372Z,38.88
2023-09-07T13:23:08.684Z,38.51
2023-09-07T13:25:14.181Z,37.61
2023-09-07T13:27:19.715Z,37.64
2023-09-07T13:29:26.222Z,37.83
2023-09-07T13:31:34.714Z,38.88
2023-09-07T13:33:45.180Z,37.41
2023-09-07T13:35:50.121Z,38.03
2023-09-07T13:38:06.314Z,37.92
2023-09-07T13:40:13.076Z,38.45
2023-09-07T13:42:18.947Z,36.89
2023-09-07T13:44:27.127Z,36.51
2023-09-07T13:46:34.872Z,37.71
2023-09-07T13:48:42.962Z,37.02
2023-09-07T13:50:50.323Z,36.26
2023-09-07T13:53:00.275Z,36.42
2023-09-07T13:55:06.635Z,37.08
2023-09-07T13:57:18.431Z,37.04
2023-09-07T13:59:23.593Z,36.72
2023-09-07T14:01:33.230Z,36.25
2023-09-07T14:03:39.326Z,35.80
2023-09-07T14:05:44.289Z,36.80
2023-09-07T14:07:49.772Z,36.57
2023-09-07T14:10:00.638Z,36.59
2023-09-07T14:12:05.846Z,36.30
2023-09-07T14:14:11.251Z,35.95
2023-09-07T14:16:17.584Z,36.48
2023-09-07T14:18:22.626Z,36.46
2023-09-07T14:20:27.908Z,35.80
2023-09-07T14:22:30.585Z,36.14
2023-09-07T14:24:35.642Z,35.24
2023-09-07T14:26:43.442Z,35.12
2023-09-07T14:28:48.554Z,35.49
2023-09-07T14:30:56.269Z,35.60
2023-09-07T14:33:01.622Z,34.83
2023-09-07T14:35:07.498Z,35.56
2023-09-07T14:37:12.690Z,36.70
2023-09-07T14:39:26.764Z,36.49
2023-09-07T14:41:32.476Z,36.11
2023-09-07T14:43:42.425Z,37.02
2023-09-07T14:45:48.404Z,36.02
2023-09-07T14:47:53.805Z,37.28
2023-09-07T14:49:59.721Z,38.15
2023-09-07T14:52:04.791Z,37.41
2023-09-07T14:54:10.064Z,36.73
2023-09-07T14:56:16.157Z,37.04
2023-09-07T14:58:21.489Z,37.63
2023-09-07T15:00:35.520Z,37.33
2023-09-07T15:02:40.883Z,37.70
2023-09-07T15:04:47.228Z,37.99
2023-09-07T15:06:52.433Z,37.44
2023-09-07T15:09:00.227Z,38.00
2023-09-07T15:11:05.288Z,36.88
2023-09-07T15:13:11.604Z,38.23
2023-09-07T15:15:19.929Z,39.32
2023-09-07T15:17:32.386Z,38.37
2023-09-07T15:19:37.880Z,38.95
2023-09-07T15:21:43.021Z,39.20
2023-09-07T15:23:49.720Z,39.11
2023-09-07T15:25:59.447Z,39.93
2023-09-07T15:28:09.971Z,38.80
2023-09-07T15:30:16.480Z,38.80
2023-09-07T15:32:23.410Z,38.92
2023-09-07T15:34:34.935Z,37.92
2023-09-07T15:36:45.167Z,38.03
2023-09-07T15:38:52.731Z,37.97
2023-09-07T15:40:58.732Z,38.13
2023-09-07T15:43:07.474Z,39.30
2023-09-07T15:45:13.731Z,39.02
2023-09-07T15:47:19.628Z,39.29
2023-09-07T15:49:28.412Z,39.25
2023-09-07T15:51:42.613Z,40.46
2023-09-07T15:53:50.005Z,40.73
2023-09-07T15:56:10.877Z,40.99
2023-09-07T15:58:30.095Z,41.38
2023-09-07T16:00:36.752Z,41.52
2023-09-07T16:02:44.868Z,41.97
2023-09-07T16:04:50.115Z,42.23
2023-09-07T16:07:00.899Z,42.48
2023-09-07T16:09:06.900Z,42.83
2023-09-07T16:11:14.137Z,43.39
2023-09-07T16:13:19.239Z,43.35
2023-09-07T16:15:27.228Z,44.05
2023-09-07T16:17:35.922Z,43.69
2023-09-07T16:19:46.602Z,44.54
2023-09-07T16:21:55.676Z,44.83
2023-09-07T16:24:03.444Z,44.46
2023-09-07T16:26:09.108Z,45.28
2023-09-07T16:28:14.356Z,45.80
2023-09-07T16:30:19.273Z,45.75
2023-09-07T16:32:24.543Z,45.54
2023-09-07T16:34:30.443Z,46.17
2023-09-07T16:36:48.493Z,45.60
2023-09-07T16:38:54.671Z,46.68
2023-09-07T16:41:07.664Z,46.79
2023-09-07T16:43:13.768Z,47.51
2023-09-07T16:45:18.955Z,47.49
2023-09-07T16:47:26.870Z,47.81
2023-09-07T16:49:32.032Z,48.00
2023-09-07T16:51:37.077Z,48.13
2023-09-07T16:53:44.109Z,48.38
2023-09-07T16:55:46.476Z,48.57
2023-09-07T16:57:55.950Z,48.79
2023-09-07T17:00:01.710Z,49.12
2023-09-07T17:02:10.117Z,49.71
2023-09-07T17:04:19.224Z,49.49
2023-09-07T17:06:35.619Z,50.27
2023-09-07T17:08:41.045Z,50.27
2023-09-07T17:10:47.288Z,50.52
2023-09-07T17:12:57.432Z,50.74
2023-09-07T17:15:02.891Z,51.13
2023-09-07T17:17:09.195Z,51.01
2023-09-07T17:19:16.234Z,50.82
2023-09-07T17:21:25.932Z,51.45
2023-09-07T17:23:36.829Z,51.35
2023-09-07T17:25:43.016Z,51.88
2023-09-07T17:27:49.156Z,52.10
2023-09-07T17:30:00.359Z,52.49
2023-09-07T17:32:05.703Z,53.78
2023-09-07T17:34:13.221Z,53.30
2023-09-07T17:36:17.279Z,53.69
2023-09-07T17:38:22.433Z,54.81
2023-09-07T17:40:27.759Z,55.18
2023-09-07T17:42:31.419Z,54.83
2023-09-07T17:44:36.657Z,56.06
2023-09-07T17:46:44.770Z,56.01
2023-09-07T17:48:52.795Z,56.41
2023-09-07T17:50:59.996Z,56.58
2023-09-07T17:53:05.114Z,56.57
2023-09-07T17:55:11.203Z,57.15
2023-09-07T17:57:13.581Z,58.10
2023-09-07T17:59:18.382Z,58.45
2023-09-07T18:01:23.923Z,58.52
2023-09-07T18:03:35.198Z,58.58
2023-09-07T18:05:40.367Z,59.43
2023-09-07T18:07:46.817Z,59.88
2023-09-07T18:09:52.141Z,60.11
2023-09-07T18:12:00.361Z,60.79
2023-09-07T18:14:12.969Z,60.86
2023-09-07T18:16:18.729Z,60.91
2023-09-07T18:18:23.941Z,61.90
2023-09-07T18:20:32.870Z,61.91
2023-09-07T18:22:42.926Z,61.94
2023-09-07T18:24:50.850Z,62.90
2023-09-07T18:26:58.639Z,63.34
2023-09-07T18:29:07.453Z,63.40
2023-09-07T18:31:10.046Z,63.86
2023-09-07T18:33:18.061Z,64.30
2023-09-07T18:35:23.170Z,65.33
2023-09-07T18:37:33.641Z,64.63
2023-09-07T18:39:38.951Z,65.57
2023-09-07T18:41:47.052Z,65.98
2023-09-07T18:43:53.288Z,67.54
2023-09-07T18:46:00.900Z,68.32
2023-09-07T18:48:06.213Z,67.98
2023-09-07T18:50:13.583Z,68.18
2023-09-07T18:52:18.886Z,69.33
2023-09-07T18:54:25.935Z,69.38
2023-09-07T18:56:30.903Z,69.80
2023-09-07T18:58:36.780Z,70.08
2023-09-07T19:00:43.940Z,69.33
2023-09-07T19:02:51.675Z,70.01
2023-09-07T19:04:59.173Z,70.10
2023-09-07T19:07:07.609Z,70.11
2023-09-07T19:09:11.645Z,70.59
2023-09-07T19:11:21.531Z,71.14
2023-09-07T19:13:26.791Z,70.82
2023-09-07T19:15:45.237Z,71.14
2023-09-07T19:17:50.221Z,72.13
2023-09-07T19:19:59.205Z,72.52
2023-09-07T19:22:04.149Z,72.18
2023-09-07T19:24:15.485Z,72.81
2023-09-07T19:26:33.828Z,73.74
2023-09-07T19:28:38.871Z,73.85
2023-09-07T19:30:47.212Z,73.89
2023-09-07T19:32:52.713Z,73.69
2023-09-07T19:34:58.096Z,73.99
2023-09-07T19:37:03.983Z,74.36
2023-09-07T19:39:12.268Z,76.30
2023-09-07T19:41:14.715Z,75.93
2023-09-07T19:43:22.442Z,76.02
2023-09-07T19:45:33.962Z,77.03
2023-09-07T19:47:38.949Z,75.99
2023-09-07T19:49:42.783Z,76.92
2023-09-07T19:51:47.741Z,77.04
2023-09-07T19:53:50.563Z,76.81
2023-09-07T19:55:56.253Z,77.62
2023-09-07T19:58:01.222Z,77.01
2023-09-07T20:00:10.419Z,77.86
2023-09-07T20:02:15.930Z,78.11
2023-09-07T20:04:18.512Z,78.75
2023-09-07T20:06:38.283Z,78.68
2023-09-07T20:08:43.766Z,78.43
2023-09-07T20:10:48.879Z,78.91
2023-09-07T20:12:58.863Z,78.80
2023-09-07T20:15:04.265Z,78.64
2023-09-07T20:17:13.154Z,78.76
2023-09-07T20:19:18.679Z,78.82
2023-09-07T20:21:23.953Z,79.50
2023-09-07T20:23:35.376Z,79.83
2023-09-07T20:25:41.160Z,80.45
2023-09-07T20:27:46.232Z,80.43
2023-09-07T20:29:51.549Z,80.90
2023-09-07T20:31:56.667Z,80.60
2023-09-07T20:34:04.903Z,80.38
2023-09-07T20:36:08.440Z,80.88
2023-09-07T20:38:13.765Z,81.27
2023-09-07T20:40:19.220Z,82.82
2023-09-07T20:42:26.445Z,81.83
2023-09-07T20:44:32.960Z,82.06
2023-09-07T20:46:56.388Z,82.07
2023-09-07T20:49:06.384Z,81.64
2023-09-07T20:51:15.828Z,83.08
2023-09-07T20:53:22.170Z,82.88
2023-09-07T20:55:27.331Z,83.07
2023-09-07T20:57:32.262Z,83.57
2023-09-07T20:59:39.056Z,83.91
2023-09-07T21:01:46.247Z,83.35
2023-09-07T21:03:52.846Z,84.30
2023-09-07T21:06:00.637Z,84.48
2023-09-07T21:08:07.470Z,86.09
2023-09-07T21:10:13.834Z,84.31
2023-09-07T21:12:18.957Z,84.60
2023-09-07T21:14:24.636Z,87.10
2023-09-07T21:16:33.053Z,87.15
2023-09-07T21:18:38.451Z,86.89
2023-09-07T21:20:50.928Z,86.41
2023-09-07T21:23:02.087Z,86.33
2023-09-07T21:25:09.187Z,86.56
2023-09-07T21:27:18.390Z,85.75
2023-09-07T21:29:25.935Z,86.84
2023-09-07T21:31:32.850Z,86.66
2023-09-07T21:33:38.532Z,87.75
2023-09-07T21:35:44.688Z,87.19
2023-09-07T21:37:50.003Z,89.85
2023-09-07T21:40:01.141Z,88.54
2023-09-07T21:42:06.726Z,88.25
2023-09-07T21:44:12.071Z,89.09
2023-09-07T21:46:17.301Z,89.80
2023-09-07T21:48:22.649Z,90.12
2023-09-07T21:50:30.565Z,90.81
2023-09-07T21:52:35.555Z,89.47
2023-09-07T21:54:40.651Z,90.02
2023-09-07T21:56:48.404Z,89.95
2023-09-07T21:58:54.579Z,90.96
2023-09-07T22:00:59.837Z,91.37
2023-09-07T22:03:05.247Z,92.86
2023-09-07T22:05:11.528Z,92.35
2023-09-07T22:07:16.853Z,92.07
2023-09-07T22:09:22.011Z,93.58
2023-09-07T22:11:27.674Z,95.46
2023-09-07T22:13:35.616Z,93.33
2023-09-07T22:15:40.688Z,93.05
2023-09-07T22:17:48.680Z,93.28
2023-09-07T22:19:54.714Z,93.42
2023-09-07T22:21:57.220Z,92.73
2023-09-07T22:24:02.593Z,93.49
2023-09-07T22:26:05.103Z,94.35
2023-09-07T22:28:10.960Z,93.82
2023-09-07T22:30:19.476Z,93.45
2023-09-07T22:32:27.241Z,94.80
2023-09-07T22:34:33.226Z,94.85
2023-09-07T22:36:38.367Z,95.01
2023-09-07T22:38:46.428Z,96.11
2023-09-07T22:40:51.900Z,95.41
2023-09-07T22:42:56.921Z,96.89
2023-09-07T22:45:02.068Z,97.08
2023-09-07T22:47:09.877Z,96.86
2023-09-07T22:49:18.525Z,96.97
2023-09-07T22:51:26.700Z,97.45
2023-09-07T22:53:32.646Z,96.33
2023-09-07T22:55:47.155Z,97.03
2023-09-07T22:57:54.728Z,96.99
2023-09-07T23:00:00.813Z,96.03
2023-09-07T23:02:03.649Z,97.43
2023-09-07T23:04:11.883Z,96.71
2023-09-07T23:06:17.353Z,96.75
2023-09-07T23:08:20.141Z,96.34
2023-09-07T23:10:27.127Z,98.55
2023-09-07T23:12:32.314Z,97.86
2023-09-07T23:14:37.410Z,98.54
2023-09-07T23:16:42.674Z,97.70
2023-09-07T23:18:47.812Z,98.81
2023-09-07T23:21:01.003Z,98.57
2023-09-07T23:23:06.129Z,100.00
2023-09-07T23:25:12.649Z,100.00
2023-09-07T23:27:15.328Z,98.66
2023-09-07T23:29:20.094Z,98.11
2023-09-07T23:31:26.647Z,98.40
2023-09-07T23:33:32.418Z,99.71
2023-09-07T23:35:37.480Z,99.29
2023-09-07T23:37:47.913Z,99.47
2023-09-07T23:39:53.020Z,100.00
2023-09-07T23:42:01.266Z,100.00
2023-09-07T23:44:06.576Z,100.00
2023-09-07T23:46:12.577Z,100.00
2023-09-07T23:48:18.087Z,100.00
2023-09-07T23:50:23.268Z,100.00
2023-09-07T23:52:32.060Z,100.00
2023-09-07T23:54:39.669Z,100.00
2023-09-07T23:56:44.905Z,100.00
2023-09-07T23:58:50.024Z,100.00
